Terminal Aerodrome Forecast
Issued by NWS Northern Indiana

Home | Current Version | Previous Version | Graphics & Text | Print | Product List | Glossary On
Versions: 1 2 3 4 5 6 7 8 9 10 11 12 13 14 15 16 17
000
FTUS43 KIWX 190934 AAB
TAFFWA
TAF AMD
KFWA 190934Z 1910/2006 35012KT 6SM -SN BR SCT008 OVC015
     FM191100 34014G24KT P6SM SCT015 BKN050
     FM191500 32014G22KT P6SM FEW020
     FM200400 31006KT P6SM SKC=

USA.gov is the U.S. government's official web portal to all federal, state and local government web resources and services.